Huvudsida
METAR-TAF:

METAR-TAF

Flygplatser :

Anchorage, Alaska, USA

latitud: 61-11N, longitud: 149-58W, höjd: 22 m

Aktuellt väderrapport

Denna rapport gjordes för 44 minuter sedan, klockan 20:53 UTC
Stilla vind
Temperatur -17°C
Fuktighet 77%
Tryck 1000 hPa
Sikt: 16.1 km
Klar himmel

METAR: PALH 192053Z 00000KT 10SM CLR M17/M20 A2952 RMK AO2 SLP997 T11721200 51006

Tid: 12:37 (21:37 UTC)


TAF: saknas

Aktuella väderrapporter och prognoser från 4000 flygplatser (METAR- och TAF-rapporter).

De tillgängliga stationerna syns som gula och röda prickar på kartan.

För musen över prickarna för att se namnen på stationerna.

Klicka sedan för att få väderrapporter och prognoser.

För att ändra kartan: Klicka på de gröna knapparna med ett svart kors på för att zooma in; den gröna knappen med ett streck på för att zooma ut; eller på de gröna pilarna för angränsande kartor.


METAR-TAF: